EKAH/AAR METAR and TAF weather

Enter ICAO airport designator
Station Type Date Time Source
EKAH METAR 2020/06/06 13:50 UTC NOAA

EKAH 061350Z AUTO 27007KT 240V310 9999NDV -SHRA BKN029/// BKN100/// 12/08 Q0996


Station Type Date Time Source
EKAH Decoded METAR 2020/06/06 13:50 UTC NOAA

Tirstrup, Denmark (EKAH) 56-18N 010-37E 25M
Jun 06, 2020 - 09:50 AM EDT / 2020.06.06 1350 UTC
Wind: from the W (270 degrees) at 8 MPH (7 KT) (direction variable):0
Sky conditions: mostly cloudy
Weather: light rain showers
Temperature: 53 F (12 C)
Dew Point: 46 F (8 C)
Relative Humidity: 76%
Pressure (altimeter): 29.41 in. Hg (0996 hPa)
ob: EKAH 061350Z AUTO 27007KT 240V310 9999NDV -SHRA BKN029/// BKN100/// 12/08 Q0996
cycle: 14

Station Type Date Time Source
EKAH TAF 2020/06/05 12:00 UTC NOAA

TAF EKAH 051103Z 0512/0518 22008KT 9999 SCT030
TEMPO 0512/0518 FEW020CB

Example: see airport list